createdAt,value
2023-03-12T00:02:25.695Z,26.05
2023-03-12T00:07:25.284Z,14.50
2023-03-12T00:09:58.856Z,19.17
2023-03-12T00:12:28.162Z,14.90
2023-03-12T00:14:56.474Z,12.10
2023-03-12T00:17:27.092Z,13.70
2023-03-12T00:19:58.067Z,13.63
2023-03-12T00:22:29.152Z,11.77
2023-03-12T00:24:58.862Z,17.42
2023-03-12T00:27:30.421Z,16.35
2023-03-12T00:30:01.023Z,11.18
2023-03-12T00:32:30.046Z,11.63
2023-03-12T00:34:58.275Z,13.13
2023-03-12T00:37:29.405Z,11.05
2023-03-12T00:39:59.401Z,12.63
2023-03-12T00:42:29.712Z,11.23
2023-03-12T00:45:05.207Z,12.80
2023-03-12T00:47:34.660Z,12.57
2023-03-12T00:50:05.358Z,12.95
2023-03-12T00:52:33.936Z,19.33
2023-03-12T00:55:03.874Z,13.70
2023-03-12T00:57:34.839Z,15.40
2023-03-12T01:00:04.205Z,16.27
2023-03-12T01:02:39.960Z,12.50
2023-03-12T01:05:10.207Z,13.55
2023-03-12T01:07:39.403Z,16.23
2023-03-12T01:10:14.075Z,14.10
2023-03-12T01:12:42.954Z,18.85
2023-03-12T01:15:18.048Z,20.83
2023-03-12T01:17:46.552Z,20.17
2023-03-12T01:20:14.892Z,16.50
2023-03-12T01:22:44.067Z,15.57
2023-03-12T01:25:17.444Z,12.95
2023-03-12T01:27:46.834Z,22.48
2023-03-12T01:30:16.662Z,16.98
2023-03-12T01:32:45.224Z,16.65
2023-03-12T01:35:14.503Z,16.52
2023-03-12T01:37:43.050Z,14.90
2023-03-12T01:40:16.561Z,16.70
2023-03-12T01:42:45.028Z,16.85
2023-03-12T01:45:46.722Z,16.65
2023-03-12T01:48:15.158Z,15.52
2023-03-12T01:50:44.547Z,17.27
2023-03-12T01:53:13.400Z,15.82
2023-03-12T01:55:45.274Z,17.05
2023-03-12T01:58:15.969Z,19.63
2023-03-12T02:00:45.497Z,18.92
2023-03-12T02:03:14.749Z,21.42
2023-03-12T02:05:48.291Z,22.17
2023-03-12T02:08:18.219Z,26.35
2023-03-12T02:10:48.785Z,20.38
2023-03-12T02:13:17.905Z,21.30
2023-03-12T02:15:48.555Z,15.80
2023-03-12T02:18:19.131Z,13.63
2023-03-12T02:20:54.404Z,15.80
2023-03-12T02:23:30.878Z,14.10
2023-03-12T02:26:03.254Z,15.02
2023-03-12T02:28:37.757Z,14.45
2023-03-12T02:31:07.232Z,14.55
2023-03-12T02:33:36.132Z,15.02
2023-03-12T02:36:06.027Z,13.65
2023-03-12T02:38:38.230Z,17.33
2023-03-12T02:41:15.131Z,17.10
2023-03-12T02:43:47.511Z,19.92
2023-03-12T02:46:16.853Z,18.15
2023-03-12T02:48:45.491Z,19.60
2023-03-12T02:51:16.442Z,28.90
2023-03-12T02:53:45.556Z,17.88
2023-03-12T02:56:15.034Z,23.10
2023-03-12T02:58:44.978Z,21.55
2023-03-12T03:01:13.240Z,20.27
2023-03-12T03:03:42.439Z,22.40
2023-03-12T03:06:11.077Z,17.40
2023-03-12T03:08:40.041Z,20.02
2023-03-12T03:11:11.179Z,17.63
2023-03-12T03:13:41.296Z,18.48
2023-03-12T03:16:13.277Z,18.08
2023-03-12T03:18:42.413Z,17.60
2023-03-12T03:21:16.524Z,15.65
2023-03-12T03:23:45.394Z,15.55
2023-03-12T03:26:14.534Z,16.33
2023-03-12T03:28:47.220Z,17.35
2023-03-12T03:31:15.830Z,16.92
2023-03-12T03:33:45.041Z,17.63
2023-03-12T03:36:23.322Z,14.23
2023-03-12T03:38:51.859Z,14.95
2023-03-12T03:41:22.919Z,14.48
2023-03-12T03:44:00.131Z,12.70
2023-03-12T03:46:30.845Z,11.85
2023-03-12T03:48:59.708Z,15.02
2023-03-12T03:51:28.483Z,12.30
2023-03-12T03:53:58.761Z,12.13
2023-03-12T03:56:27.227Z,10.45
2023-03-12T03:59:01.412Z,12.82
2023-03-12T04:01:31.265Z,12.65
2023-03-12T04:04:00.161Z,9.48
2023-03-12T04:06:29.880Z,13.02
2023-03-12T04:08:58.473Z,13.18
2023-03-12T04:11:27.032Z,13.00
2023-03-12T04:13:58.840Z,12.20
2023-03-12T04:16:27.231Z,11.43
2023-03-12T04:18:55.512Z,12.98
2023-03-12T04:21:23.794Z,9.65
2023-03-12T04:23:52.731Z,15.68
2023-03-12T04:26:21.549Z,14.80
2023-03-12T04:28:49.769Z,11.93
2023-03-12T04:31:19.585Z,16.35
2023-03-12T04:33:50.637Z,20.17
2023-03-12T04:36:19.117Z,15.30
2023-03-12T04:38:47.393Z,13.15
2023-03-12T04:41:19.352Z,11.80
2023-03-12T04:43:48.225Z,15.05
2023-03-12T04:46:16.620Z,12.73
2023-03-12T04:48:48.620Z,15.07
2023-03-12T04:51:19.148Z,13.80
2023-03-12T04:53:47.931Z,14.18
2023-03-12T04:56:17.995Z,16.23
2023-03-12T04:58:55.418Z,18.00
2023-03-12T05:01:28.118Z,15.55
2023-03-12T05:04:03.143Z,13.63
2023-03-12T05:06:34.012Z,15.30
2023-03-12T05:09:05.109Z,15.02
2023-03-12T05:11:34.562Z,14.30
2023-03-12T05:14:03.157Z,14.63
2023-03-12T05:16:32.124Z,14.88
2023-03-12T05:19:02.479Z,15.88
2023-03-12T05:21:30.694Z,13.50
2023-03-12T05:24:00.229Z,14.27
2023-03-12T05:26:32.453Z,14.30
2023-03-12T05:29:02.845Z,11.75
2023-03-12T05:31:33.113Z,15.20
2023-03-12T05:34:03.897Z,12.95
2023-03-12T05:36:32.627Z,15.73
2023-03-12T05:39:00.991Z,12.55
2023-03-12T05:41:31.595Z,14.55
2023-03-12T05:44:01.224Z,13.27
2023-03-12T05:46:29.898Z,12.52
2023-03-12T05:48:58.080Z,14.32
2023-03-12T05:51:28.488Z,12.85
2023-03-12T05:53:56.989Z,11.57
2023-03-12T05:56:27.031Z,14.18
2023-03-12T05:58:55.401Z,13.25
2023-03-12T06:01:26.159Z,17.60
2023-03-12T06:03:56.254Z,12.05
2023-03-12T06:06:24.680Z,12.82
2023-03-12T06:08:54.278Z,17.27
2023-03-12T06:11:24.942Z,11.65
2023-03-12T06:13:53.922Z,11.50
2023-03-12T06:16:24.560Z,12.18
2023-03-12T06:18:55.469Z,17.88
2023-03-12T06:21:25.502Z,11.98
2023-03-12T06:23:55.645Z,14.30
2023-03-12T06:26:25.173Z,14.75
2023-03-12T06:29:05.244Z,12.90
2023-03-12T06:31:37.238Z,15.65
2023-03-12T06:34:10.309Z,15.85
2023-03-12T06:36:38.691Z,11.63
2023-03-12T06:39:09.600Z,12.43
2023-03-12T06:41:39.163Z,12.93
2023-03-12T06:44:08.652Z,17.70
2023-03-12T06:46:37.092Z,14.98
2023-03-12T06:49:09.273Z,18.83
2023-03-12T06:51:40.067Z,16.65
2023-03-12T06:54:10.582Z,15.43
2023-03-12T06:56:39.407Z,18.92
2023-03-12T06:59:07.687Z,21.60
2023-03-12T07:01:37.215Z,21.63
2023-03-12T07:04:06.091Z,15.93
2023-03-12T07:06:36.829Z,14.23
2023-03-12T07:09:06.925Z,15.75
2023-03-12T07:11:36.717Z,19.35
2023-03-12T07:14:05.112Z,17.30
2023-03-12T07:16:35.011Z,19.10
2023-03-12T07:19:03.791Z,23.05
2023-03-12T07:21:32.138Z,18.73
2023-03-12T07:24:02.256Z,13.85
2023-03-12T07:26:30.660Z,18.48
2023-03-12T07:29:00.204Z,17.02
2023-03-12T07:31:28.591Z,17.70
2023-03-12T07:33:59.206Z,18.95
2023-03-12T07:36:31.363Z,15.73
2023-03-12T07:38:59.788Z,20.33
2023-03-12T07:41:29.488Z,15.63
2023-03-12T07:43:59.441Z,16.73
2023-03-12T07:46:27.997Z,19.17
2023-03-12T07:48:56.234Z,16.90
2023-03-12T07:51:25.450Z,22.17
2023-03-12T07:53:53.822Z,19.30
2023-03-12T07:56:22.346Z,16.00
2023-03-12T07:58:51.463Z,19.10
2023-03-12T08:01:22.121Z,18.42
2023-03-12T08:03:50.547Z,19.73
2023-03-12T08:06:21.024Z,19.38
2023-03-12T08:08:49.634Z,15.68
2023-03-12T08:11:18.413Z,19.67
2023-03-12T08:13:46.639Z,18.92
2023-03-12T08:16:15.858Z,18.08
2023-03-12T08:18:45.971Z,18.73
2023-03-12T08:21:16.687Z,14.38
2023-03-12T08:23:46.383Z,15.05
2023-03-12T08:26:14.770Z,16.40
2023-03-12T08:28:43.028Z,17.02
2023-03-12T08:31:11.478Z,17.88
2023-03-12T08:33:43.406Z,17.38
2023-03-12T08:36:12.935Z,17.45
2023-03-12T08:38:41.329Z,20.67
2023-03-12T08:41:10.479Z,18.77
2023-03-12T08:43:38.854Z,17.73
2023-03-12T08:46:09.859Z,14.68
2023-03-12T08:48:43.295Z,16.80
2023-03-12T08:51:15.601Z,14.35
2023-03-12T08:53:45.756Z,19.23
2023-03-12T08:56:15.636Z,18.50
2023-03-12T08:58:44.909Z,14.25
2023-03-12T09:01:14.037Z,18.10
2023-03-12T09:03:42.822Z,16.17
2023-03-12T09:06:16.869Z,14.98
2023-03-12T09:08:53.669Z,14.77
2023-03-12T09:11:21.908Z,14.82
2023-03-12T09:16:39.813Z,13.23
2023-03-12T09:19:10.717Z,13.30
2023-03-12T09:21:40.963Z,11.55
2023-03-12T09:24:11.822Z,17.45
2023-03-12T09:26:42.431Z,13.23
2023-03-12T09:29:12.945Z,15.32
2023-03-12T09:31:43.521Z,17.17
2023-03-12T09:34:13.331Z,19.80
2023-03-12T09:36:46.590Z,18.33
2023-03-12T09:39:17.245Z,18.55
2023-03-12T09:41:48.731Z,18.92
2023-03-12T09:44:24.866Z,17.35
2023-03-12T09:46:55.473Z,18.58
2023-03-12T09:49:33.295Z,17.98
2023-03-12T09:52:19.660Z,17.63
2023-03-12T09:54:58.624Z,16.70
2023-03-12T09:57:29.852Z,18.38
2023-03-12T09:59:59.008Z,18.58
2023-03-12T10:02:50.953Z,18.13
2023-03-12T10:05:25.996Z,23.13
2023-03-12T10:08:23.896Z,17.95
2023-03-12T10:11:01.842Z,16.70
2023-03-12T10:13:52.648Z,20.25
2023-03-12T10:16:40.830Z,16.58
2023-03-12T10:19:31.963Z,18.60
2023-03-12T10:22:08.623Z,15.48
2023-03-12T10:24:50.856Z,14.38
2023-03-12T10:27:20.728Z,22.00
2023-03-12T10:29:54.513Z,20.75
2023-03-12T10:32:29.491Z,16.73
2023-03-12T10:35:04.527Z,14.75
2023-03-12T10:37:38.595Z,16.77
2023-03-12T10:40:29.919Z,13.75
2023-03-12T10:42:58.661Z,14.68
2023-03-12T10:45:36.225Z,12.45
2023-03-12T10:48:09.494Z,11.65
2023-03-12T10:50:43.307Z,13.98
2023-03-12T10:53:19.995Z,12.15
2023-03-12T10:56:07.000Z,12.45
2023-03-12T10:58:40.740Z,12.88
2023-03-12T11:01:21.529Z,12.80
2023-03-12T11:03:51.083Z,11.75
2023-03-12T11:06:35.301Z,12.13
2023-03-12T11:09:17.355Z,12.80
2023-03-12T11:11:51.034Z,10.55
2023-03-12T11:14:21.391Z,12.70
2023-03-12T11:16:50.056Z,11.15
2023-03-12T11:19:29.898Z,11.85
2023-03-12T11:22:00.367Z,10.48
2023-03-12T11:24:29.607Z,13.80
2023-03-12T11:27:08.902Z,11.70
2023-03-12T11:29:48.775Z,13.70
2023-03-12T11:32:20.877Z,11.02
2023-03-12T11:34:51.706Z,11.32
2023-03-12T11:37:31.667Z,11.25
2023-03-12T11:40:14.465Z,9.65
2023-03-12T11:42:57.952Z,10.00
2023-03-12T11:45:31.775Z,9.63
2023-03-12T11:48:13.098Z,8.18
2023-03-12T11:51:04.502Z,7.28
2023-03-12T11:53:47.181Z,7.07
2023-03-12T11:56:24.695Z,8.57
2023-03-12T11:59:07.084Z,7.72
2023-03-12T12:01:46.430Z,8.53
2023-03-12T12:04:47.676Z,6.15
2023-03-12T12:07:26.440Z,6.25
2023-03-12T12:10:02.830Z,4.18
2023-03-12T12:12:49.525Z,5.90
2023-03-12T12:15:29.589Z,5.55
2023-03-12T12:18:14.371Z,4.25
2023-03-12T12:20:49.773Z,4.95
2023-03-12T12:23:26.188Z,4.47
2023-03-12T12:26:03.349Z,4.15
2023-03-12T12:29:00.731Z,5.95
2023-03-12T12:31:41.458Z,5.57
2023-03-12T12:34:36.846Z,3.42
2023-03-12T12:37:23.203Z,4.82
2023-03-12T12:39:59.393Z,4.30
2023-03-12T12:42:33.390Z,7.18
2023-03-12T12:45:06.985Z,4.20
2023-03-12T12:47:44.116Z,4.03
2023-03-12T12:50:19.242Z,6.95
2023-03-12T12:52:54.860Z,10.48
2023-03-12T12:55:29.774Z,6.30
2023-03-12T12:58:01.611Z,7.95
2023-03-12T13:00:45.255Z,9.77
2023-03-12T13:03:24.164Z,9.55
2023-03-12T13:05:58.246Z,10.27
2023-03-12T13:08:58.171Z,7.97
2023-03-12T13:11:31.605Z,7.00
2023-03-12T13:14:36.493Z,7.35
2023-03-12T13:17:27.234Z,10.27
2023-03-12T13:20:14.998Z,8.45
2023-03-12T13:23:09.739Z,6.13
2023-03-12T13:25:56.513Z,6.70
2023-03-12T13:28:36.263Z,10.82
2023-03-12T13:31:36.616Z,7.82
2023-03-12T13:34:42.242Z,8.70
2023-03-12T13:37:32.726Z,5.65
2023-03-12T13:40:08.441Z,9.68
2023-03-12T13:42:40.157Z,12.65
2023-03-12T13:45:30.384Z,15.13
2023-03-12T13:48:06.454Z,13.43
2023-03-12T13:50:43.600Z,8.50
2023-03-12T13:53:21.583Z,8.40
2023-03-12T13:56:03.457Z,5.28
2023-03-12T13:58:34.984Z,8.88
2023-03-12T14:01:06.646Z,7.07
2023-03-12T14:03:40.617Z,12.18
2023-03-12T14:06:16.245Z,9.55
2023-03-12T14:09:06.653Z,8.45
2023-03-12T14:11:49.242Z,13.02
2023-03-12T14:14:41.522Z,8.02
2023-03-12T14:17:18.385Z,8.80
2023-03-12T14:19:50.178Z,11.50
2023-03-12T14:22:22.739Z,10.52
2023-03-12T14:24:58.461Z,11.40
2023-03-12T14:27:29.508Z,8.95
2023-03-12T14:29:59.787Z,10.13
2023-03-12T14:32:32.435Z,7.95
2023-03-12T14:35:12.348Z,7.40
2023-03-12T14:37:45.145Z,11.27
2023-03-12T14:40:25.397Z,8.65
2023-03-12T14:42:55.273Z,9.25
2023-03-12T14:45:24.397Z,9.50
2023-03-12T14:47:56.157Z,11.38
2023-03-12T14:50:29.368Z,8.80
2023-03-12T14:53:13.782Z,14.18
2023-03-12T14:55:43.356Z,9.98
2023-03-12T14:58:18.476Z,9.77
2023-03-12T15:00:49.551Z,11.60
2023-03-12T15:03:19.525Z,13.10
2023-03-12T15:05:48.626Z,10.00
2023-03-12T15:08:18.111Z,7.55
2023-03-12T15:10:52.348Z,10.18
2023-03-12T15:13:25.667Z,8.63
2023-03-12T15:15:55.523Z,9.27
2023-03-12T15:18:29.974Z,13.32
2023-03-12T15:21:03.042Z,12.85
2023-03-12T15:26:14.709Z,14.07
2023-03-12T15:28:43.521Z,14.32
2023-03-12T15:31:15.136Z,11.82
2023-03-12T15:33:46.732Z,9.05
2023-03-12T15:36:37.203Z,11.23
2023-03-12T15:39:27.081Z,8.65
2023-03-12T15:42:00.949Z,14.90
2023-03-12T15:44:33.023Z,10.38
2023-03-12T15:47:07.951Z,12.93
2023-03-12T15:49:41.700Z,9.60
2023-03-12T15:52:29.261Z,16.00
2023-03-12T15:55:04.644Z,14.05
2023-03-12T15:57:35.746Z,10.02
2023-03-12T16:00:32.114Z,9.40
2023-03-12T16:03:06.297Z,11.80
2023-03-12T16:05:37.828Z,10.57
2023-03-12T16:08:16.323Z,11.48
2023-03-12T16:10:47.564Z,13.15
2023-03-12T16:13:19.861Z,12.70
2023-03-12T16:15:49.639Z,19.08
2023-03-12T16:18:25.398Z,11.10
2023-03-12T16:20:56.579Z,13.15
2023-03-12T16:23:26.009Z,11.35
2023-03-12T16:25:56.452Z,12.18
2023-03-12T16:28:28.946Z,10.38
2023-03-12T16:30:57.688Z,11.10
2023-03-12T16:33:26.282Z,17.05
2023-03-12T16:35:55.004Z,7.50
2023-03-12T16:38:24.009Z,13.43
2023-03-12T16:40:54.250Z,11.35
2023-03-12T16:43:28.081Z,13.57
2023-03-12T16:45:57.792Z,8.20
2023-03-12T16:48:27.474Z,17.38
2023-03-12T16:50:57.930Z,14.45
2023-03-12T16:53:26.240Z,13.40
2023-03-12T16:55:56.494Z,13.63
2023-03-12T16:58:31.066Z,9.13
2023-03-12T17:00:59.357Z,14.85
2023-03-12T17:03:37.196Z,10.88
2023-03-12T17:06:14.618Z,12.10
2023-03-12T17:08:43.380Z,15.45
2023-03-12T17:11:19.861Z,13.35
2023-03-12T17:13:55.255Z,10.88
2023-03-12T17:16:26.211Z,11.18
2023-03-12T17:18:55.495Z,16.88
2023-03-12T17:21:24.842Z,16.40
2023-03-12T17:23:53.305Z,21.58
2023-03-12T17:26:22.521Z,14.77
2023-03-12T17:28:52.073Z,14.82
2023-03-12T17:31:24.717Z,13.82
2023-03-12T17:33:54.537Z,11.90
2023-03-12T17:36:24.354Z,10.68
2023-03-12T17:38:53.241Z,13.27
2023-03-12T17:41:26.944Z,18.88
2023-03-12T17:44:01.819Z,9.95
2023-03-12T17:46:32.505Z,11.05
2023-03-12T17:49:00.891Z,9.10
2023-03-12T17:51:30.221Z,12.82
2023-03-12T17:53:58.858Z,11.00
2023-03-12T17:56:31.432Z,10.55
2023-03-12T17:59:04.578Z,12.13
2023-03-12T18:01:33.388Z,6.63
2023-03-12T18:04:02.130Z,12.45
2023-03-12T18:06:31.096Z,10.70
2023-03-12T18:08:59.500Z,15.43
2023-03-12T18:11:28.162Z,10.93
2023-03-12T18:13:58.941Z,11.07
2023-03-12T18:16:28.812Z,10.77
2023-03-12T18:18:59.434Z,9.15
2023-03-12T18:21:29.108Z,14.38
2023-03-12T18:24:02.060Z,12.48
2023-03-12T18:26:36.723Z,7.88
2023-03-12T18:29:05.235Z,13.80
2023-03-12T18:31:35.250Z,15.98
2023-03-12T18:34:03.646Z,20.17
2023-03-12T18:36:32.104Z,14.98
2023-03-12T18:39:04.773Z,12.68
2023-03-12T18:41:32.895Z,16.65
2023-03-12T18:44:01.956Z,12.90
2023-03-12T18:46:31.819Z,15.45
2023-03-12T18:49:06.184Z,11.38
2023-03-12T18:51:34.419Z,14.40
2023-03-12T18:54:05.316Z,10.75
2023-03-12T18:56:34.644Z,12.80
2023-03-12T18:59:03.435Z,7.65
2023-03-12T19:01:31.799Z,13.30
2023-03-12T19:04:02.605Z,12.50
2023-03-12T19:06:44.285Z,11.10
2023-03-12T19:09:21.069Z,15.20
2023-03-12T19:11:49.710Z,10.27
2023-03-12T19:14:23.299Z,12.52
2023-03-12T19:16:51.682Z,14.68
2023-03-12T19:19:20.549Z,14.20
2023-03-12T19:21:57.505Z,13.15
2023-03-12T19:24:26.435Z,13.95
2023-03-12T19:26:55.351Z,16.98
2023-03-12T19:29:23.942Z,14.02
2023-03-12T19:31:55.423Z,13.82
2023-03-12T19:34:24.085Z,10.40
2023-03-12T19:36:53.598Z,15.43
2023-03-12T19:39:23.788Z,12.18
2023-03-12T19:41:52.840Z,13.52
2023-03-12T19:44:21.453Z,15.98
2023-03-12T19:46:49.742Z,11.88
2023-03-12T19:49:18.172Z,9.20
2023-03-12T19:51:46.734Z,13.15
2023-03-12T19:54:16.997Z,16.23
2023-03-12T19:56:45.570Z,11.48
2023-03-12T19:59:14.532Z,14.48
2023-03-12T20:01:43.067Z,14.60
2023-03-12T20:04:14.082Z,12.50
2023-03-12T20:06:43.814Z,11.32
2023-03-12T20:09:14.684Z,10.95
2023-03-12T20:11:44.268Z,12.43
2023-03-12T20:14:12.538Z,13.48
2023-03-12T20:16:40.893Z,13.00
2023-03-12T20:19:12.307Z,14.20
2023-03-12T20:21:41.154Z,14.10
2023-03-12T20:24:09.509Z,17.20
2023-03-12T20:26:39.370Z,15.13
2023-03-12T20:29:11.328Z,15.85
2023-03-12T20:31:39.767Z,18.50
2023-03-12T20:34:10.457Z,17.48
2023-03-12T20:36:39.461Z,18.63
2023-03-12T20:39:08.657Z,18.40
2023-03-12T20:41:36.973Z,12.85
2023-03-12T20:44:06.429Z,25.85
2023-03-12T20:46:39.625Z,17.80
2023-03-12T20:49:08.899Z,17.70
2023-03-12T20:51:37.216Z,19.30
2023-03-12T20:54:05.587Z,18.33
2023-03-12T20:56:34.105Z,13.35
2023-03-12T20:59:02.379Z,12.93
2023-03-12T21:01:33.170Z,16.23
2023-03-12T21:04:05.401Z,14.82
2023-03-12T21:06:33.732Z,13.67
2023-03-12T21:09:02.052Z,16.52
2023-03-12T21:11:31.487Z,17.23
2023-03-12T21:14:00.054Z,19.20
2023-03-12T21:16:29.205Z,19.90
2023-03-12T21:18:57.957Z,15.88
2023-03-12T21:21:29.062Z,14.98
2023-03-12T21:23:59.881Z,18.33
2023-03-12T21:26:28.165Z,15.65
2023-03-12T21:28:56.718Z,18.42
2023-03-12T21:31:26.985Z,17.50
2023-03-12T21:33:56.547Z,14.80
2023-03-12T21:36:26.705Z,10.65
2023-03-12T21:38:57.596Z,21.20
2023-03-12T21:41:26.155Z,13.90
2023-03-12T21:43:54.734Z,15.52
2023-03-12T21:46:27.911Z,16.92
2023-03-12T21:48:57.172Z,13.27
2023-03-12T21:51:26.581Z,18.05
2023-03-12T21:53:56.545Z,15.10
2023-03-12T21:56:29.144Z,19.13
2023-03-12T21:59:00.698Z,14.82
2023-03-12T22:01:30.504Z,13.48
2023-03-12T22:04:01.064Z,7.72
2023-03-12T22:06:34.562Z,10.10
2023-03-12T22:09:05.006Z,14.40
2023-03-12T22:11:35.105Z,16.20
2023-03-12T22:14:04.108Z,11.82
2023-03-12T22:16:35.165Z,15.75
2023-03-12T22:19:04.122Z,10.80
2023-03-12T22:21:33.405Z,13.35
2023-03-12T22:24:04.326Z,12.88
2023-03-12T22:26:33.243Z,12.10
2023-03-12T22:29:02.236Z,13.30
2023-03-12T22:31:31.561Z,7.95
2023-03-12T22:34:02.226Z,8.90
2023-03-12T22:36:31.687Z,9.18
2023-03-12T22:39:00.399Z,13.45
2023-03-12T22:41:31.663Z,14.90
2023-03-12T22:44:12.443Z,11.43
2023-03-12T22:46:41.555Z,12.02
2023-03-12T22:49:11.277Z,10.00
2023-03-12T22:51:39.780Z,11.02
2023-03-12T22:54:08.716Z,14.10
2023-03-12T22:56:38.624Z,12.85
2023-03-12T22:59:09.317Z,14.40
2023-03-12T23:01:38.097Z,16.98
2023-03-12T23:04:08.398Z,16.33
2023-03-12T23:06:37.790Z,14.23
2023-03-12T23:09:07.270Z,11.05
2023-03-12T23:11:35.912Z,13.88
2023-03-12T23:14:05.745Z,15.40
2023-03-12T23:16:36.500Z,10.95
2023-03-12T23:19:05.066Z,10.98
2023-03-12T23:21:36.269Z,13.63
2023-03-12T23:24:07.804Z,9.90
2023-03-12T23:26:36.782Z,10.27
2023-03-12T23:29:06.365Z,12.40
2023-03-12T23:31:34.647Z,9.38
2023-03-12T23:34:03.211Z,14.25
2023-03-12T23:36:33.078Z,10.63
2023-03-12T23:39:03.434Z,13.38
2023-03-12T23:41:32.213Z,14.38
2023-03-12T23:44:02.335Z,14.98
2023-03-12T23:46:33.076Z,14.20
2023-03-12T23:49:02.228Z,9.43
2023-03-12T23:51:33.662Z,12.82
2023-03-12T23:54:05.285Z,8.57
2023-03-12T23:56:37.405Z,8.82
2023-03-12T23:59:06.633Z,10.85
